Detall de PIREP

Printer-friendly versionPDF version

[2012/12/08 09:56:00]
Flight IATA:CT1003
Pilot Number:012
Company ICAO:CAT
Aircraft Type:C750/F
PAX:4
Departing Airport: LEBL
Destination Airport: LPPT
Alternate Airport:LEMG
Online: VATSIM
Route:SENIA UZ596 NEXAS UN975 ELVAR DCT EXONA
Flight Level:F390
No Slew and time accel
No pause
Crash detect
Detect pilot in Cockpit between each 30 and 45 minutes
09:56 Zero fuel Weight: 22539 Lbs, Fuel Weight: 4634 Lbs
09:56 VATSIM:LEBL 081530Z 32010G20KT CAVOK 16/M00 Q1016 NOSIG
09:56 VATSIM:LPPT 081530Z 08005KT 9999 FEW009 13/11 Q1023
09:56 VOICE CATALONIAN / CPT LPPT
09:57 Parking Brakes off
10:02 Take-off
10:02 Take off Weight: 27098 Lbs
10:02 Wind: 322º @ 010 Knots Heading: 248º
10:02 POS N41º 17´ 11´´ E002º 05´ 12´´
10:02 Gear Up: 164 Knots
10:02 Flaps:3 at 164 Knots
10:02 Flaps:2 at 185 Knots
10:02 Flaps:0 at 199 Knots
10:12 TOC
10:12 Fuel Weight: 4092 Lb
10:17 Wind:300º@064 Knots Heading: 274º Ground Speed: 439 Knots Altitude 39150 ft
10:32 Wind:318º@070 Knots Heading: 256º Ground Speed: 451 Knots Altitude 39274 ft
10:47 Wind:332º@075 Knots Heading: 263º Ground Speed: 460 Knots Altitude 39288 ft
11:01 TOD
11:01 Fuel Weight: 2986 Lb
11:02 Wind:310º@061 Knots Heading: 250º Ground Speed: 455 Knots Altitude 36998 ft
11:17 Wind:004º@010 Knots Heading: 241º Ground Speed: 285 Knots Altitude 10646 ft
11:22 Flaps:1 at 185 Knots
11:22 Flaps:2 at 184 Knots
11:23 Flaps:3 at 183 Knots
11:23 Flaps:4 at 181 Knots
11:23 Gear Down: 164 Knots
11:24 Flaps:5 at 157 Knots
11:25 TouchDown:Rate -230 ft/min Speed: 120 Knots
11:25 VATSIM:LPPT 081700Z 00000KT 9999 FEW015 12/10 Q1023
11:25 Land
11:25 Wind:006º@002 Knots
11:25 Heading: 022º
11:25 Flight Duration: 01:23
11:25 Landing Weight: 25222 Lbs
11:25 POS N38º 46´ 43´´ W009º 08´ 14´´
11:29 Parking brakes on
11:29 Block to Block Duration: 01:33
11:29 Final Fuel: 2645 Lbls
11:29 Spent Fuel: 1988 Lbls
11:29 Flight Length: 567 NM
11:29 TOD Land Length: 139 NM

Exportar CSV

Powered by Drupal - Modified by Danger4k